sensor_id;sensor_type;location;lat;lon;timestamp;pressure;altitude;pressure_sealevel;temperature;humidity
62995;BME280;49086;52.300;4.850;2022-08-18T00:02:27;53350.38;;;-146.41;100.00
62995;BME280;49086;52.300;4.850;2022-08-18T00:05:00;53384.25;;;-146.41;100.00
62995;BME280;49086;52.300;4.850;2022-08-18T00:07:49;53350.38;;;-146.41;100.00
62995;BME280;49086;52.300;4.850;2022-08-18T00:10:27;53358.34;;;-146.41;100.00
62995;BME280;49086;52.300;4.850;2022-08-18T00:13:13;53356.34;;;-146.41;100.00
62995;BME280;49086;52.300;4.850;2022-08-18T00:15:48;53372.28;;;-146.41;100.00
62995;BME280;49086;52.300;4.850;2022-08-18T00:18:14;53336.41;;;-146.41;100.00
62995;BME280;49086;52.300;4.850;2022-08-18T00:20:48;53350.38;;;-146.41;100.00
62995;BME280;49086;52.300;4.850;2022-08-18T00:23:19;53374.28;;;-146.41;100.00
62995;BME280;49086;52.300;4.850;2022-08-18T00:25:47;53342.41;;;-146.41;100.00
62995;BME280;49086;52.300;4.850;2022-08-18T00:28:18;53350.38;;;-146.41;100.00
62995;BME280;49086;52.300;4.850;2022-08-18T00:30:50;53362.31;;;-146.41;100.00
62995;BME280;49086;52.300;4.850;2022-08-18T00:33:27;53338.41;;;-146.41;100.00
62995;BME280;49086;52.300;4.850;2022-08-18T00:35:56;53350.38;;;-146.41;100.00
62995;BME280;49086;52.300;4.850;2022-08-18T00:38:45;53382.25;;;-146.41;100.00
62995;BME280;49086;52.300;4.850;2022-08-18T00:41:13;53358.34;;;-146.41;100.00
62995;BME280;49086;52.300;4.850;2022-08-18T00:43:48;53346.38;;;-146.41;100.00
62995;BME280;49086;52.300;4.850;2022-08-18T00:46:28;53380.28;;;-146.41;100.00
62995;BME280;49086;52.300;4.850;2022-08-18T00:49:11;53338.41;;;-146.41;100.00
62995;BME280;49086;52.300;4.850;2022-08-18T00:51:52;53368.31;;;-146.41;100.00
62995;BME280;49086;52.300;4.850;2022-08-18T00:54:29;53366.31;;;-146.41;100.00
62995;BME280;49086;52.300;4.850;2022-08-18T00:57:04;53408.19;;;-146.41;100.00
62995;BME280;49086;52.300;4.850;2022-08-18T01:00:04;53350.38;;;-146.41;100.00
62995;BME280;49086;52.300;4.850;2022-08-18T01:02:55;53382.25;;;-146.41;100.00
62995;BME280;49086;52.300;4.850;2022-08-18T01:05:36;53376.28;;;-146.41;100.00
62995;BME280;49086;52.300;4.850;2022-08-18T01:08:07;53378.28;;;-146.41;100.00
62995;BME280;49086;52.300;4.850;2022-08-18T01:10:36;53388.25;;;-146.41;100.00
62995;BME280;49086;52.300;4.850;2022-08-18T01:13:04;53364.31;;;-146.41;100.00
62995;BME280;49086;52.300;4.850;2022-08-18T01:15:34;53390.22;;;-146.41;100.00
62995;BME280;49086;52.300;4.850;2022-08-18T01:18:43;53376.28;;;-146.41;100.00
62995;BME280;49086;52.300;4.850;2022-08-18T01:21:30;53358.34;;;-146.41;100.00
62995;BME280;49086;52.300;4.850;2022-08-18T01:24:28;53330.44;;;-146.41;100.00
62995;BME280;49086;52.300;4.850;2022-08-18T01:27:16;53346.38;;;-146.41;100.00
62995;BME280;49086;52.300;4.850;2022-08-18T01:30:09;53368.31;;;-146.41;100.00
62995;BME280;49086;52.300;4.850;2022-08-18T01:32:40;53354.34;;;-146.41;100.00
62995;BME280;49086;52.300;4.850;2022-08-18T01:35:11;53372.28;;;-146.41;100.00
62995;BME280;49086;52.300;4.850;2022-08-18T01:38:20;53362.31;;;-146.41;100.00
62995;BME280;49086;52.300;4.850;2022-08-18T01:40:58;53408.19;;;-146.41;100.00
62995;BME280;49086;52.300;4.850;2022-08-18T01:43:35;53356.34;;;-146.41;100.00
62995;BME280;49086;52.300;4.850;2022-08-18T01:46:30;53346.38;;;-146.41;100.00
62995;BME280;49086;52.300;4.850;2022-08-18T01:49:02;53358.34;;;-146.41;100.00
62995;BME280;49086;52.300;4.850;2022-08-18T01:51:34;53330.44;;;-146.41;100.00
62995;BME280;49086;52.300;4.850;2022-08-18T01:54:11;53398.22;;;-146.41;100.00
62995;BME280;49086;52.300;4.850;2022-08-18T01:56:51;53350.38;;;-146.41;100.00
62995;BME280;49086;52.300;4.850;2022-08-18T01:59:45;53334.41;;;-146.41;100.00
62995;BME280;49086;52.300;4.850;2022-08-18T02:02:23;53374.28;;;-146.41;100.00
62995;BME280;49086;52.300;4.850;2022-08-18T02:05:23;53382.25;;;-146.41;100.00
62995;BME280;49086;52.300;4.850;2022-08-18T02:08:08;53398.22;;;-146.41;100.00
62995;BME280;49086;52.300;4.850;2022-08-18T02:10:43;53398.22;;;-146.41;100.00
62995;BME280;49086;52.300;4.850;2022-08-18T02:13:37;53362.31;;;-146.41;100.00
62995;BME280;49086;52.300;4.850;2022-08-18T02:16:22;53378.28;;;-146.41;100.00
62995;BME280;49086;52.300;4.850;2022-08-18T02:19:10;53390.22;;;-146.41;100.00
62995;BME280;49086;52.300;4.850;2022-08-18T02:22:06;53386.25;;;-146.41;100.00
62995;BME280;49086;52.300;4.850;2022-08-18T02:24:56;53366.31;;;-146.41;100.00
62995;BME280;49086;52.300;4.850;2022-08-18T02:27:51;53394.22;;;-146.41;100.00
62995;BME280;49086;52.300;4.850;2022-08-18T02:30:42;53374.28;;;-146.41;100.00
62995;BME280;49086;52.300;4.850;2022-08-18T02:33:13;53348.38;;;-146.41;100.00
62995;BME280;49086;52.300;4.850;2022-08-18T02:36:06;53358.34;;;-146.41;100.00
62995;BME280;49086;52.300;4.850;2022-08-18T02:38:38;53432.09;;;-146.41;100.00
62995;BME280;49086;52.300;4.850;2022-08-18T02:41:11;53398.22;;;-146.41;100.00
62995;BME280;49086;52.300;4.850;2022-08-18T02:43:42;53382.25;;;-146.41;100.00
62995;BME280;49086;52.300;4.850;2022-08-18T02:46:13;53392.22;;;-146.41;100.00
62995;BME280;49086;52.300;4.850;2022-08-18T02:48:41;53416.16;;;-146.41;100.00
62995;BME280;49086;52.300;4.850;2022-08-18T02:51:14;53388.25;;;-146.41;100.00
62995;BME280;49086;52.300;4.850;2022-08-18T02:54:17;53392.22;;;-146.41;100.00
62995;BME280;49086;52.300;4.850;2022-08-18T02:56:53;53390.22;;;-146.41;100.00
62995;BME280;49086;52.300;4.850;2022-08-18T02:59:28;53364.31;;;-146.41;100.00
62995;BME280;49086;52.300;4.850;2022-08-18T03:02:00;53400.19;;;-146.41;100.00
62995;BME280;49086;52.300;4.850;2022-08-18T03:04:31;53398.22;;;-146.41;100.00
62995;BME280;49086;52.300;4.850;2022-08-18T03:07:14;53354.34;;;-146.41;100.00
62995;BME280;49086;52.300;4.850;2022-08-18T03:10:03;53374.28;;;-146.41;100.00
62995;BME280;49086;52.300;4.850;2022-08-18T03:12:33;53400.19;;;-146.41;100.00
62995;BME280;49086;52.300;4.850;2022-08-18T03:15:00;53394.22;;;-146.41;100.00
62995;BME280;49086;52.300;4.850;2022-08-18T03:17:51;53364.31;;;-146.41;100.00
62995;BME280;49086;52.300;4.850;2022-08-18T03:20:19;53352.38;;;-146.41;100.00
62995;BME280;49086;52.300;4.850;2022-08-18T03:22:56;53410.16;;;-146.41;100.00
62995;BME280;49086;52.300;4.850;2022-08-18T03:25:24;53408.19;;;-146.41;100.00
62995;BME280;49086;52.300;4.850;2022-08-18T03:28:16;53420.13;;;-146.41;100.00
62995;BME280;49086;52.300;4.850;2022-08-18T03:31:08;53364.31;;;-146.41;100.00
62995;BME280;49086;52.300;4.850;2022-08-18T03:33:36;53358.34;;;-146.41;100.00
62995;BME280;49086;52.300;4.850;2022-08-18T03:36:28;53414.16;;;-146.41;100.00
62995;BME280;49086;52.300;4.850;2022-08-18T03:38:56;53358.34;;;-146.41;100.00
62995;BME280;49086;52.300;4.850;2022-08-18T03:41:29;53380.28;;;-146.41;100.00
62995;BME280;49086;52.300;4.850;2022-08-18T03:44:04;53356.34;;;-146.41;100.00
62995;BME280;49086;52.300;4.850;2022-08-18T03:46:32;53374.28;;;-146.41;100.00
62995;BME280;49086;52.300;4.850;2022-08-18T03:49:00;53374.28;;;-146.41;100.00
62995;BME280;49086;52.300;4.850;2022-08-18T03:51:39;53378.28;;;-146.41;100.00
62995;BME280;49086;52.300;4.850;2022-08-18T03:54:47;53382.25;;;-146.41;100.00
62995;BME280;49086;52.300;4.850;2022-08-18T03:57:23;53380.28;;;-146.41;100.00
62995;BME280;49086;52.300;4.850;2022-08-18T04:00:11;53376.28;;;-146.41;100.00
62995;BME280;49086;52.300;4.850;2022-08-18T04:02:54;53384.25;;;-146.41;100.00
62995;BME280;49086;52.300;4.850;2022-08-18T04:05:22;53402.19;;;-146.41;100.00
62995;BME280;49086;52.300;4.850;2022-08-18T04:08:02;53362.31;;;-146.41;100.00
62995;BME280;49086;52.300;4.850;2022-08-18T04:10:30;53374.28;;;-146.41;100.00
62995;BME280;49086;52.300;4.850;2022-08-18T04:12:57;53388.25;;;-146.41;100.00
62995;BME280;49086;52.300;4.850;2022-08-18T04:16:07;53378.28;;;-146.41;100.00
62995;BME280;49086;52.300;4.850;2022-08-18T04:18:37;53370.31;;;-146.41;100.00
62995;BME280;49086;52.300;4.850;2022-08-18T04:21:11;53370.31;;;-146.41;100.00
62995;BME280;49086;52.300;4.850;2022-08-18T04:23:51;53380.28;;;-146.41;100.00
62995;BME280;49086;52.300;4.850;2022-08-18T04:26:18;53382.25;;;-146.41;100.00
62995;BME280;49086;52.300;4.850;2022-08-18T04:28:47;53384.25;;;-146.41;100.00
62995;BME280;49086;52.300;4.850;2022-08-18T04:31:34;53376.28;;;-146.41;100.00
62995;BME280;49086;52.300;4.850;2022-08-18T04:34:20;53406.19;;;-146.41;100.00
62995;BME280;49086;52.300;4.850;2022-08-18T04:37:09;53402.19;;;-146.41;100.00
62995;BME280;49086;52.300;4.850;2022-08-18T04:39:35;53374.28;;;-146.41;100.00
62995;BME280;49086;52.300;4.850;2022-08-18T04:42:04;53342.41;;;-146.41;100.00
62995;BME280;49086;52.300;4.850;2022-08-18T04:44:53;53378.28;;;-146.41;100.00
62995;BME280;49086;52.300;4.850;2022-08-18T04:47:24;53350.38;;;-146.41;100.00
62995;BME280;49086;52.300;4.850;2022-08-18T04:49:50;53374.28;;;-146.41;100.00
62995;BME280;49086;52.300;4.850;2022-08-18T04:52:18;53370.31;;;-146.41;100.00
62995;BME280;49086;52.300;4.850;2022-08-18T04:55:24;53370.31;;;-146.41;100.00
62995;BME280;49086;52.300;4.850;2022-08-18T04:57:55;53386.25;;;-146.41;100.00
62995;BME280;49086;52.300;4.850;2022-08-18T05:00:26;53342.41;;;-146.41;100.00
62995;BME280;49086;52.300;4.850;2022-08-18T05:02:51;53404.19;;;-146.41;100.00
62995;BME280;49086;52.300;4.850;2022-08-18T05:05:19;53368.31;;;-146.41;100.00
62995;BME280;49086;52.300;4.850;2022-08-18T05:08:07;53382.25;;;-146.41;100.00
62995;BME280;49086;52.300;4.850;2022-08-18T05:10:45;53360.34;;;-146.41;100.00
62995;BME280;49086;52.300;4.850;2022-08-18T05:13:19;53368.31;;;-146.41;100.00
62995;BME280;49086;52.300;4.850;2022-08-18T05:15:51;53390.22;;;-146.41;100.00
62995;BME280;49086;52.300;4.850;2022-08-18T05:18:50;53358.34;;;-146.41;100.00
62995;BME280;49086;52.300;4.850;2022-08-18T05:21:38;53340.41;;;-146.41;100.00
62995;BME280;49086;52.300;4.850;2022-08-18T05:24:29;53370.31;;;-146.41;100.00
62995;BME280;49086;52.300;4.850;2022-08-18T05:27:01;53362.31;;;-146.41;100.00
62995;BME280;49086;52.300;4.850;2022-08-18T05:29:55;53368.31;;;-146.41;100.00
62995;BME280;49086;52.300;4.850;2022-08-18T05:32:38;53312.50;;;-146.41;100.00
62995;BME280;49086;52.300;4.850;2022-08-18T05:35:25;53370.31;;;-146.41;100.00
62995;BME280;49086;52.300;4.850;2022-08-18T05:41:48;53362.31;;;-146.41;100.00
62995;BME280;49086;52.300;4.850;2022-08-18T05:44:31;53340.41;;;-146.41;100.00
62995;BME280;49086;52.300;4.850;2022-08-18T05:49:54;53394.22;;;-146.41;100.00
62995;BME280;49086;52.300;4.850;2022-08-18T05:55:41;53378.28;;;-146.41;100.00
62995;BME280;49086;52.300;4.850;2022-08-18T05:58:45;53398.22;;;-146.41;100.00
62995;BME280;49086;52.300;4.850;2022-08-18T06:05:04;53418.16;;;-146.41;100.00
62995;BME280;49086;52.300;4.850;2022-08-18T06:10:50;53372.28;;;-146.41;100.00
62995;BME280;49086;52.300;4.850;2022-08-18T06:13:42;53358.34;;;-146.41;100.00
62995;BME280;49086;52.300;4.850;2022-08-18T06:16:38;53376.28;;;-146.41;100.00
62995;BME280;49086;52.300;4.850;2022-08-18T06:19:45;53376.28;;;-146.41;100.00
62995;BME280;49086;52.300;4.850;2022-08-18T06:26:07;53352.38;;;-146.41;100.00
62995;BME280;49086;52.300;4.850;2022-08-18T06:35:16;53350.38;;;-146.41;100.00
62995;BME280;49086;52.300;4.850;2022-08-18T06:41:22;53356.34;;;-146.41;100.00
62995;BME280;49086;52.300;4.850;2022-08-18T06:44:49;53346.38;;;-146.41;100.00
62995;BME280;49086;52.300;4.850;2022-08-18T06:47:56;53378.28;;;-146.41;100.00
62995;BME280;49086;52.300;4.850;2022-08-18T06:51:17;53338.41;;;-146.41;100.00
62995;BME280;49086;52.300;4.850;2022-08-18T06:54:24;53336.41;;;-146.41;100.00
62995;BME280;49086;52.300;4.850;2022-08-18T06:56:57;53330.44;;;-146.41;100.00
62995;BME280;49086;52.300;4.850;2022-08-18T07:00:01;53312.50;;;-146.41;100.00
62995;BME280;49086;52.300;4.850;2022-08-18T07:02:53;53298.53;;;-146.41;100.00
62995;BME280;49086;52.300;4.850;2022-08-18T07:05:33;53314.50;;;-146.41;100.00
62995;BME280;49086;52.300;4.850;2022-08-18T07:11:35;53330.44;;;-146.41;100.00
62995;BME280;49086;52.300;4.850;2022-08-18T07:14:19;53316.47;;;-146.41;100.00
62995;BME280;49086;52.300;4.850;2022-08-18T07:17:32;53272.63;;;-146.41;100.00
62995;BME280;49086;52.300;4.850;2022-08-18T07:20:07;53268.63;;;-146.41;100.00
62995;BME280;49086;52.300;4.850;2022-08-18T07:22:57;53298.53;;;-146.41;100.00
62995;BME280;49086;52.300;4.850;2022-08-18T07:25:42;53292.56;;;-146.41;100.00
62995;BME280;49086;52.300;4.850;2022-08-18T07:28:51;53294.56;;;-146.41;99.51
62995;BME280;49086;52.300;4.850;2022-08-18T07:31:50;53318.47;;;-146.41;99.00
62995;BME280;49086;52.300;4.850;2022-08-18T07:34:33;53268.63;;;-146.41;97.99
62995;BME280;49086;52.300;4.850;2022-08-18T07:37:31;53272.63;;;-146.41;98.23
62995;BME280;49086;52.300;4.850;2022-08-18T07:43:16;53310.50;;;-146.41;98.10
62995;BME280;49086;52.300;4.850;2022-08-18T07:46:16;53286.59;;;-146.41;97.29
62995;BME280;49086;52.300;4.850;2022-08-18T07:48:44;53308.50;;;-146.41;97.91
62995;BME280;49086;52.300;4.850;2022-08-18T07:51:41;53292.56;;;-146.41;97.27
62995;BME280;49086;52.300;4.850;2022-08-18T07:55:03;53280.59;;;-146.41;95.99
62995;BME280;49086;52.300;4.850;2022-08-18T08:07:15;53278.59;;;-146.41;93.51
62995;BME280;49086;52.300;4.850;2022-08-18T08:10:20;53276.63;;;-146.41;93.33
62995;BME280;49086;52.300;4.850;2022-08-18T08:12:55;53298.53;;;-146.41;90.07
62995;BME280;49086;52.300;4.850;2022-08-18T08:16:01;53232.75;;;-146.41;88.98
62995;BME280;49086;52.300;4.850;2022-08-18T08:19:02;53276.63;;;-146.41;88.58
62995;BME280;49086;52.300;4.850;2022-08-18T08:21:38;53256.69;;;-146.41;88.27
62995;BME280;49086;52.300;4.850;2022-08-18T08:24:52;53258.69;;;-146.41;87.87
62995;BME280;49086;52.300;4.850;2022-08-18T08:31:06;53244.72;;;-146.41;86.65
62995;BME280;49086;52.300;4.850;2022-08-18T08:34:02;53252.69;;;-146.41;85.90
62995;BME280;49086;52.300;4.850;2022-08-18T08:36:42;53230.78;;;-146.41;87.80
62995;BME280;49086;52.300;4.850;2022-08-18T08:39:38;53270.63;;;-146.41;88.63
62995;BME280;49086;52.300;4.850;2022-08-18T08:42:43;53246.72;;;-146.41;85.84
62995;BME280;49086;52.300;4.850;2022-08-18T08:46:05;53254.69;;;-146.41;87.79
62995;BME280;49086;52.300;4.850;2022-08-18T08:49:00;53298.53;;;-146.41;88.99
62995;BME280;49086;52.300;4.850;2022-08-18T08:52:25;53240.75;;;-146.41;87.82
62995;BME280;49086;52.300;4.850;2022-08-18T08:54:51;53220.81;;;-146.41;89.00
62995;BME280;49086;52.300;4.850;2022-08-18T08:57:21;53220.81;;;-146.41;86.76
62995;BME280;49086;52.300;4.850;2022-08-18T08:59:51;53238.75;;;-146.41;85.32
62995;BME280;49086;52.300;4.850;2022-08-18T09:05:38;53230.78;;;-146.41;81.72
62995;BME280;49086;52.300;4.850;2022-08-18T09:11:51;53224.78;;;-146.41;82.79
62995;BME280;49086;52.300;4.850;2022-08-18T09:23:06;53250.69;;;-146.41;81.40
62995;BME280;49086;52.300;4.850;2022-08-18T09:29:24;53222.78;;;-146.41;78.96
62995;BME280;49086;52.300;4.850;2022-08-18T09:35:39;53184.94;;;-146.41;77.80
62995;BME280;49086;52.300;4.850;2022-08-18T09:38:25;53149.03;;;-146.41;76.63
62995;BME280;49086;52.300;4.850;2022-08-18T09:41:29;53153.03;;;-146.41;75.69
62995;BME280;49086;52.300;4.850;2022-08-18T09:47:07;53234.75;;;-146.41;75.40
62995;BME280;49086;52.300;4.850;2022-08-18T09:55:39;53254.69;;;-146.41;76.64
62995;BME280;49086;52.300;4.850;2022-08-18T10:04:36;53214.81;;;-146.41;77.85
62995;BME280;49086;52.300;4.850;2022-08-18T10:07:37;53228.78;;;-146.41;78.69
62995;BME280;49086;52.300;4.850;2022-08-18T10:13:40;53167.00;;;-146.41;76.36
62995;BME280;49086;52.300;4.850;2022-08-18T10:16:41;53186.91;;;-146.41;75.00
62995;BME280;49086;52.300;4.850;2022-08-18T10:22:41;53163.00;;;-146.41;76.29
62995;BME280;49086;52.300;4.850;2022-08-18T10:25:48;53186.91;;;-146.41;76.01
62995;BME280;49086;52.300;4.850;2022-08-18T10:31:18;53226.78;;;-146.41;76.07
62995;BME280;49086;52.300;4.850;2022-08-18T10:34:06;53202.88;;;-146.41;77.56
62995;BME280;49086;52.300;4.850;2022-08-18T10:36:59;53246.72;;;-146.41;75.83
62995;BME280;49086;52.300;4.850;2022-08-18T10:40:16;53168.97;;;-146.41;74.41
62995;BME280;49086;52.300;4.850;2022-08-18T10:43:17;53174.97;;;-146.41;73.23
62995;BME280;49086;52.300;4.850;2022-08-18T10:45:51;53194.88;;;-146.41;73.86
62995;BME280;49086;52.300;4.850;2022-08-18T10:48:29;53172.97;;;-146.41;75.19
62995;BME280;49086;52.300;4.850;2022-08-18T11:01:25;53250.69;;;-146.41;81.98
62995;BME280;49086;52.300;4.850;2022-08-18T11:07:10;53230.78;;;-146.41;86.50
62995;BME280;49086;52.300;4.850;2022-08-18T11:09:42;53242.72;;;-146.41;84.74
62995;BME280;49086;52.300;4.850;2022-08-18T11:19:25;53244.72;;;-146.41;86.07
62995;BME280;49086;52.300;4.850;2022-08-18T11:22:54;53254.69;;;-146.41;85.21
62995;BME280;49086;52.300;4.850;2022-08-18T11:25:33;53242.72;;;-146.41;85.08
62995;BME280;49086;52.300;4.850;2022-08-18T11:28:22;53232.75;;;-146.41;84.58
62995;BME280;49086;52.300;4.850;2022-08-18T11:31:17;53218.81;;;-146.41;81.53
62995;BME280;49086;52.300;4.850;2022-08-18T11:33:47;53157.03;;;-146.41;81.53
62995;BME280;49086;52.300;4.850;2022-08-18T11:36:15;53212.84;;;-146.41;77.37
62995;BME280;49086;52.300;4.850;2022-08-18T11:39:02;53200.88;;;-146.41;77.75
62995;BME280;49086;52.300;4.850;2022-08-18T11:42:00;53167.00;;;-146.41;78.26
62995;BME280;49086;52.300;4.850;2022-08-18T11:44:52;53220.81;;;-146.41;78.19
62995;BME280;49086;52.300;4.850;2022-08-18T11:53:56;53186.91;;;-146.41;77.21
62995;BME280;49086;52.300;4.850;2022-08-18T11:56:40;53176.94;;;-146.41;76.38
62995;BME280;49086;52.300;4.850;2022-08-18T11:59:35;53180.94;;;-146.41;75.90
62995;BME280;49086;52.300;4.850;2022-08-18T12:02:15;53220.81;;;-146.41;76.12
62995;BME280;49086;52.300;4.850;2022-08-18T12:04:43;53178.94;;;-146.41;74.63
62995;BME280;49086;52.300;4.850;2022-08-18T12:07:33;53182.94;;;-146.41;73.93
62995;BME280;49086;52.300;4.850;2022-08-18T12:10:28;53186.91;;;-146.41;73.96
62995;BME280;49086;52.300;4.850;2022-08-18T12:13:23;53182.94;;;-146.41;76.84
62995;BME280;49086;52.300;4.850;2022-08-18T12:19:27;53194.88;;;-146.41;73.47
62995;BME280;49086;52.300;4.850;2022-08-18T12:22:00;53115.16;;;-146.41;72.64
62995;BME280;49086;52.300;4.850;2022-08-18T12:24:33;53161.00;;;-146.41;70.48
62995;BME280;49086;52.300;4.850;2022-08-18T12:27:04;53147.06;;;-146.41;71.14
62995;BME280;49086;52.300;4.850;2022-08-18T12:29:36;53093.25;;;-146.41;70.01
62995;BME280;49086;52.300;4.850;2022-08-18T12:32:04;53073.31;;;-146.41;68.66
62995;BME280;49086;52.300;4.850;2022-08-18T12:34:43;53043.41;;;-146.41;66.76
62995;BME280;49086;52.300;4.850;2022-08-18T12:37:21;53159.00;;;-146.41;69.74
62995;BME280;49086;52.300;4.850;2022-08-18T12:39:48;53135.09;;;-146.41;70.67
62995;BME280;49086;52.300;4.850;2022-08-18T12:42:19;53079.28;;;-146.41;69.28
62995;BME280;49086;52.300;4.850;2022-08-18T12:45:28;53067.31;;;-146.41;66.21
62995;BME280;49086;52.300;4.850;2022-08-18T12:48:13;53063.34;;;-146.41;66.33
62995;BME280;49086;52.300;4.850;2022-08-18T12:50:59;53105.19;;;-146.41;62.34
62995;BME280;49086;52.300;4.850;2022-08-18T12:54:04;53039.41;;;-146.41;63.78
62995;BME280;49086;52.300;4.850;2022-08-18T12:56:37;53147.06;;;-146.41;59.39
62995;BME280;49086;52.300;4.850;2022-08-18T12:59:09;53055.38;;;-146.41;61.59
62995;BME280;49086;52.300;4.850;2022-08-18T13:01:45;53127.13;;;-146.41;63.37
62995;BME280;49086;52.300;4.850;2022-08-18T13:04:16;53133.09;;;-146.41;61.49
62995;BME280;49086;52.300;4.850;2022-08-18T13:07:13;53107.19;;;-146.41;63.99
62995;BME280;49086;52.300;4.850;2022-08-18T13:10:03;53107.19;;;-146.41;64.71
62995;BME280;49086;52.300;4.850;2022-08-18T13:13:00;53165.00;;;-146.41;66.45
62995;BME280;49086;52.300;4.850;2022-08-18T13:15:38;53159.00;;;-146.41;67.86
62995;BME280;49086;52.300;4.850;2022-08-18T13:18:07;53127.13;;;-146.41;68.24
62995;BME280;49086;52.300;4.850;2022-08-18T13:20:36;53167.00;;;-146.41;68.56
62995;BME280;49086;52.300;4.850;2022-08-18T13:23:27;53170.97;;;-146.41;67.98
62995;BME280;49086;52.300;4.850;2022-08-18T13:26:29;53165.00;;;-146.41;69.25
62995;BME280;49086;52.300;4.850;2022-08-18T13:29:02;53170.97;;;-146.41;70.67
62995;BME280;49086;52.300;4.850;2022-08-18T13:31:28;53176.94;;;-146.41;70.34
62995;BME280;49086;52.300;4.850;2022-08-18T13:34:02;53174.97;;;-146.41;68.81
62995;BME280;49086;52.300;4.850;2022-08-18T13:36:31;53159.00;;;-146.41;68.47
62995;BME280;49086;52.300;4.850;2022-08-18T13:39:28;53145.06;;;-146.41;68.50
62995;BME280;49086;52.300;4.850;2022-08-18T13:41:57;53174.97;;;-146.41;68.74
62995;BME280;49086;52.300;4.850;2022-08-18T13:44:34;53147.06;;;-146.41;66.00
62995;BME280;49086;52.300;4.850;2022-08-18T13:47:08;53176.94;;;-146.41;65.96
62995;BME280;49086;52.300;4.850;2022-08-18T13:49:38;53167.00;;;-146.41;66.00
62995;BME280;49086;52.300;4.850;2022-08-18T13:52:32;53159.00;;;-146.41;64.63
62995;BME280;49086;52.300;4.850;2022-08-18T13:55:47;53167.00;;;-146.41;63.27
62995;BME280;49086;52.300;4.850;2022-08-18T13:58:16;53184.94;;;-146.41;63.25
62995;BME280;49086;52.300;4.850;2022-08-18T14:01:02;53153.03;;;-146.41;63.29
62995;BME280;49086;52.300;4.850;2022-08-18T14:03:33;53159.00;;;-146.41;63.66
62995;BME280;49086;52.300;4.850;2022-08-18T14:06:03;53194.88;;;-146.41;65.19
62995;BME280;49086;52.300;4.850;2022-08-18T14:08:46;53182.94;;;-146.41;65.82
62995;BME280;49086;52.300;4.850;2022-08-18T14:11:38;53200.88;;;-146.41;65.55
62995;BME280;49086;52.300;4.850;2022-08-18T14:14:06;53159.00;;;-146.41;65.32
62995;BME280;49086;52.300;4.850;2022-08-18T14:16:38;53234.75;;;-146.41;64.56
62995;BME280;49086;52.300;4.850;2022-08-18T14:19:14;53184.94;;;-146.41;64.72
62995;BME280;49086;52.300;4.850;2022-08-18T14:21:58;53172.97;;;-146.41;65.63
62995;BME280;49086;52.300;4.850;2022-08-18T14:25:05;53176.94;;;-146.41;63.04
62995;BME280;49086;52.300;4.850;2022-08-18T14:27:52;53194.88;;;-146.41;64.12
62995;BME280;49086;52.300;4.850;2022-08-18T14:30:19;53190.91;;;-146.41;65.82
62995;BME280;49086;52.300;4.850;2022-08-18T14:32:50;53260.66;;;-146.41;63.76
62995;BME280;49086;52.300;4.850;2022-08-18T14:35:36;53202.88;;;-146.41;65.23
62995;BME280;49086;52.300;4.850;2022-08-18T14:38:03;53212.84;;;-146.41;63.06
62995;BME280;49086;52.300;4.850;2022-08-18T14:40:50;53194.88;;;-146.41;63.63
62995;BME280;49086;52.300;4.850;2022-08-18T14:43:33;53220.81;;;-146.41;64.14
62995;BME280;49086;52.300;4.850;2022-08-18T14:46:08;53250.69;;;-146.41;65.17
62995;BME280;49086;52.300;4.850;2022-08-18T14:49:18;53230.78;;;-146.41;67.11
62995;BME280;49086;52.300;4.850;2022-08-18T14:51:53;53216.81;;;-146.41;64.79
62995;BME280;49086;52.300;4.850;2022-08-18T14:54:48;53210.84;;;-146.41;65.94
62995;BME280;49086;52.300;4.850;2022-08-18T14:57:14;53218.81;;;-146.41;65.62
62995;BME280;49086;52.300;4.850;2022-08-18T15:00:31;53190.91;;;-146.41;66.98
62995;BME280;49086;52.300;4.850;2022-08-18T15:03:38;53218.81;;;-146.41;66.63
62995;BME280;49086;52.300;4.850;2022-08-18T15:06:32;53218.81;;;-146.41;66.95
62995;BME280;49086;52.300;4.850;2022-08-18T15:09:09;53242.72;;;-146.41;67.00
62995;BME280;49086;52.300;4.850;2022-08-18T15:11:43;53276.63;;;-146.41;66.68
62995;BME280;49086;52.300;4.850;2022-08-18T15:14:29;53228.78;;;-146.41;67.40
62995;BME280;49086;52.300;4.850;2022-08-18T15:16:56;53234.75;;;-146.41;67.77
62995;BME280;49086;52.300;4.850;2022-08-18T15:19:36;53218.81;;;-146.41;69.13
62995;BME280;49086;52.300;4.850;2022-08-18T15:22:03;53244.72;;;-146.41;67.42
62995;BME280;49086;52.300;4.850;2022-08-18T15:24:53;53234.75;;;-146.41;68.34
62995;BME280;49086;52.300;4.850;2022-08-18T15:28:05;53222.78;;;-146.41;67.14
62995;BME280;49086;52.300;4.850;2022-08-18T15:30:52;53238.75;;;-146.41;63.82
62995;BME280;49086;52.300;4.850;2022-08-18T15:33:18;53276.63;;;-146.41;63.69
62995;BME280;49086;52.300;4.850;2022-08-18T15:35:47;53236.75;;;-146.41;64.22
62995;BME280;49086;52.300;4.850;2022-08-18T15:38:50;53238.75;;;-146.41;66.63
62995;BME280;49086;52.300;4.850;2022-08-18T15:41:52;53254.69;;;-146.41;66.70
62995;BME280;49086;52.300;4.850;2022-08-18T15:44:46;53258.69;;;-146.41;67.81
62995;BME280;49086;52.300;4.850;2022-08-18T15:47:16;53214.81;;;-146.41;68.33
62995;BME280;49086;52.300;4.850;2022-08-18T15:50:10;53218.81;;;-146.41;68.34
62995;BME280;49086;52.300;4.850;2022-08-18T15:52:49;53186.91;;;-146.41;67.57
62995;BME280;49086;52.300;4.850;2022-08-18T15:55:58;53123.13;;;-146.41;68.10
62995;BME280;49086;52.300;4.850;2022-08-18T15:58:46;53131.09;;;-146.41;67.33
62995;BME280;49086;52.300;4.850;2022-08-18T16:01:12;53083.28;;;-146.41;64.17
62995;BME280;49086;52.300;4.850;2022-08-18T16:04:03;53095.22;;;-146.41;64.32
62995;BME280;49086;52.300;4.850;2022-08-18T16:06:32;53125.13;;;-146.41;62.89